Time;durP1;ratioP1;P1;durP2;ratioP2;P2;SDS_P1;SDS_P2;PMS_P1;PMS_P2;Temp;Humidity;BMP_temperature;BMP_pressure;BME280_temperature;BME280_humidity;BME280_pressure;Samples;Min_cycle;Max_cycle;Signal;HPM_P1;HPM_P2
2022/08/08 00:01:19;;;;;;;;;;;;;;;15.04;30.72;96165.44;5007394;28;20023;-66
2022/08/08 00:04:03;;;;;;;;;;;;;;;14.81;31.19;96179.00;5006591;28;19969;-65
2022/08/08 00:06:32;;;;;;;;;;;;;;;14.85;31.07;96167.72;5005747;28;20004;-65
2022/08/08 00:09:03;;;;;;;;;;;;;;;14.92;31.10;96166.97;5016392;28;20430;-65
2022/08/08 00:11:34;;;;;;;;;;;;;;;14.80;31.07;96169.31;5005147;28;19993;-65
2022/08/08 00:14:05;;;;;;;;;;;;;;;14.95;30.82;96167.41;5006156;28;19985;-64
2022/08/08 00:17:09;;;;;;;;;;;;;;;15.01;30.66;96173.84;5006454;28;20446;-65
2022/08/08 00:19:44;;;;;;;;;;;;;;;14.74;31.95;96172.75;4940386;29;19989;-65
2022/08/08 00:22:11;;;;;;;;;;;;;;;14.66;31.72;96174.53;4932605;28;20473;-65
2022/08/08 00:24:42;;;;;;;;;;;;;;;14.80;31.15;96166.66;4942875;28;20000;-65
2022/08/08 00:27:08;;;;;;;;;;;;;;;14.59;31.57;96169.09;4986515;28;20316;-64
2022/08/08 00:29:42;;;;;;;;;;;;;;;14.79;31.11;96165.00;4994644;28;20421;-65
2022/08/08 00:32:12;;;;;;;;;;;;;;;14.80;30.93;96169.31;4989951;28;20363;-65
2022/08/08 00:37:36;;;;;;;;;;;;;;;14.64;31.44;96168.53;4986987;28;19999;-65
2022/08/08 00:40:21;;;;;;;;;;;;;;;14.70;31.26;96167.78;4986716;28;20389;-65
2022/08/08 00:42:56;;;;;;;;;;;;;;;14.77;31.06;96161.66;5007606;28;20428;-65
2022/08/08 00:45:30;;;;;;;;;;;;;;;14.62;31.99;96164.38;4986083;28;19971;-65
2022/08/08 00:47:58;;;;;;;;;;;;;;;14.45;31.85;96168.13;4985845;28;20422;-65
2022/08/08 00:50:46;;;;;;;;;;;;;;;14.51;31.55;96161.16;4984906;28;20080;-65
2022/08/08 00:53:29;;;;;;;;;;;;;;;14.63;31.15;96160.66;4987172;28;19970;-65
2022/08/08 00:56:02;;;;;;;;;;;;;;;14.69;31.03;96158.06;4985758;28;19970;-65
2022/08/08 00:58:27;;;;;;;;;;;;;;;14.68;31.01;96156.41;4986262;28;20055;-65
2022/08/08 01:01:07;;;;;;;;;;;;;;;14.73;31.21;96155.84;4987900;28;20001;-65
2022/08/08 01:03:45;;;;;;;;;;;;;;;14.59;31.36;96162.91;5005600;28;19985;-65
2022/08/08 01:06:29;;;;;;;;;;;;;;;14.53;31.54;96158.31;4997765;28;19987;-65
2022/08/08 01:09:00;;;;;;;;;;;;;;;14.58;31.62;96153.19;4985148;28;20436;-65
2022/08/08 01:11:34;;;;;;;;;;;;;;;14.61;31.29;96158.19;4995609;28;20263;-65
2022/08/08 01:14:12;;;;;;;;;;;;;;;14.67;31.13;96154.75;4984582;28;20030;-65
2022/08/08 01:16:52;;;;;;;;;;;;;;;14.43;31.75;96156.78;4985578;28;19979;-65
2022/08/08 01:19:32;;;;;;;;;;;;;;;14.58;31.35;96156.72;4987071;28;20000;-66
2022/08/08 01:22:02;;;;;;;;;;;;;;;14.61;31.20;96152.81;4987741;28;19996;-65
2022/08/08 01:24:47;;;;;;;;;;;;;;;14.57;31.42;96163.09;4990873;28;20444;-65
2022/08/08 01:27:37;;;;;;;;;;;;;;;14.16;32.09;96164.50;4987750;28;20376;-65
2022/08/08 01:30:21;;;;;;;;;;;;;;;14.41;31.94;96161.47;4984424;28;20000;-66
2022/08/08 01:33:05;;;;;;;;;;;;;;;14.42;31.76;96160.44;4985721;28;20033;-65
2022/08/08 01:35:39;;;;;;;;;;;;;;;14.42;31.61;96165.81;4995058;28;19996;-65
2022/08/08 01:38:11;;;;;;;;;;;;;;;14.46;31.96;96159.06;4984981;28;19986;-66
2022/08/08 01:41:00;;;;;;;;;;;;;;;14.49;31.76;96160.53;4985262;28;20556;-65
2022/08/08 01:43:28;;;;;;;;;;;;;;;14.44;31.87;96163.78;4981350;28;20000;-66
2022/08/08 01:45:57;;;;;;;;;;;;;;;14.55;31.70;96158.97;4983460;28;19989;-65
2022/08/08 01:48:34;;;;;;;;;;;;;;;14.36;31.71;96168.41;4991938;28;20052;-65
2022/08/08 01:51:02;;;;;;;;;;;;;;;14.42;32.40;96156.97;5000018;28;20001;-66
2022/08/08 01:53:31;;;;;;;;;;;;;;;14.17;32.08;96174.19;4994773;28;19998;-65
2022/08/08 01:56:14;;;;;;;;;;;;;;;14.43;31.64;96172.84;4986522;28;20045;-65
2022/08/08 01:58:45;;;;;;;;;;;;;;;14.40;31.91;96167.88;4989756;28;19992;-65
2022/08/08 02:01:11;;;;;;;;;;;;;;;14.48;31.55;96158.88;4992102;28;19975;-66
2022/08/08 02:03:36;;;;;;;;;;;;;;;14.45;31.60;96165.44;5003900;28;19993;-66
2022/08/08 02:06:07;;;;;;;;;;;;;;;14.45;31.51;96162.75;4993786;28;20035;-66
2022/08/08 02:08:50;;;;;;;;;;;;;;;14.30;31.95;96164.66;4997255;28;20473;-65
2022/08/08 02:11:35;;;;;;;;;;;;;;;14.36;31.72;96166.59;4990378;28;20004;-66
2022/08/08 02:14:02;;;;;;;;;;;;;;;14.28;31.99;96169.38;4988148;28;19995;-65
2022/08/08 02:16:27;;;;;;;;;;;;;;;14.38;31.74;96169.88;4990773;28;20257;-65
2022/08/08 02:18:58;;;;;;;;;;;;;;;13.70;32.99;96171.69;4989660;28;20576;-66
2022/08/08 02:24:19;;;;;;;;;;;;;;;13.98;32.66;96172.09;4992580;28;20020;-65
2022/08/08 02:26:49;;;;;;;;;;;;;;;14.08;32.33;96161.94;4997063;28;20049;-66
2022/08/08 02:29:19;;;;;;;;;;;;;;;14.16;32.06;96159.16;4990231;28;20469;-66
2022/08/08 02:32:03;;;;;;;;;;;;;;;13.97;32.36;96162.41;4987104;28;20266;-66
2022/08/08 02:34:29;;;;;;;;;;;;;;;13.79;32.60;96166.25;4988307;28;20046;-66
2022/08/08 02:36:59;;;;;;;;;;;;;;;13.84;32.73;96158.53;4988994;28;19973;-66
2022/08/08 02:39:31;;;;;;;;;;;;;;;13.87;32.46;96158.13;4997891;28;19997;-66
2022/08/08 02:42:05;;;;;;;;;;;;;;;14.04;32.28;96164.13;4989827;28;19986;-65
2022/08/08 02:44:42;;;;;;;;;;;;;;;14.04;32.42;96163.31;4988702;28;20138;-66
2022/08/08 02:47:07;;;;;;;;;;;;;;;14.29;31.75;96161.16;4988644;28;20413;-66
2022/08/08 02:50:08;;;;;;;;;;;;;;;14.30;31.93;96157.44;4993873;28;20309;-65
2022/08/08 02:52:53;;;;;;;;;;;;;;;14.08;32.32;96169.97;4981014;28;19973;-66
2022/08/08 02:55:32;;;;;;;;;;;;;;;14.15;32.35;96168.22;4989957;28;20040;-61
2022/08/08 02:58:07;;;;;;;;;;;;;;;14.26;31.91;96161.53;4987590;28;19988;-64
2022/08/08 03:00:40;;;;;;;;;;;;;;;14.22;32.13;96165.59;5004022;28;19974;-65
2022/08/08 03:03:33;;;;;;;;;;;;;;;14.33;31.82;96169.63;4988722;28;20314;-65
2022/08/08 03:06:02;;;;;;;;;;;;;;;14.34;32.32;96168.59;4995943;28;20382;-59
2022/08/08 03:08:45;;;;;;;;;;;;;;;14.16;32.29;96167.19;4986700;28;19989;-65
2022/08/08 03:11:43;;;;;;;;;;;;;;;14.07;33.07;96165.59;4988011;28;20381;-65
2022/08/08 03:14:27;;;;;;;;;;;;;;;14.13;33.24;96169.38;4976584;28;20016;-65
2022/08/08 03:17:05;;;;;;;;;;;;;;;14.15;32.24;96175.41;4989035;28;19970;-65
2022/08/08 03:19:49;;;;;;;;;;;;;;;14.13;32.62;96167.56;5009713;28;20079;-61
2022/08/08 03:22:14;;;;;;;;;;;;;;;14.09;32.09;96171.63;5008876;28;19993;-64
2022/08/08 03:24:39;;;;;;;;;;;;;;;14.15;32.12;96175.41;5015225;28;19965;-64
2022/08/08 03:27:25;;;;;;;;;;;;;;;14.08;32.47;96178.00;5016863;28;20051;-64
2022/08/08 03:29:56;;;;;;;;;;;;;;;13.97;32.61;96173.94;5007787;28;19988;-65
2022/08/08 03:35:05;;;;;;;;;;;;;;;13.87;33.66;96184.06;5006437;28;20043;-65
2022/08/08 03:37:32;;;;;;;;;;;;;;;13.81;33.10;96177.63;5006989;28;20467;-64
2022/08/08 03:40:01;;;;;;;;;;;;;;;13.69;34.21;96186.09;5006969;28;19981;-59
2022/08/08 03:42:27;;;;;;;;;;;;;;;13.77;33.05;96174.47;5009272;28;20102;-65
2022/08/08 03:44:52;;;;;;;;;;;;;;;13.77;33.76;96176.31;5007605;28;19973;-65
2022/08/08 03:47:21;;;;;;;;;;;;;;;13.81;33.58;96174.94;5008697;28;20125;-64
2022/08/08 03:49:47;;;;;;;;;;;;;;;13.82;33.21;96179.28;5011389;28;20387;-64
2022/08/08 03:52:12;;;;;;;;;;;;;;;13.72;34.08;96174.19;5009679;28;20453;-64
2022/08/08 03:54:37;;;;;;;;;;;;;;;13.70;34.06;96179.72;5006625;28;19993;-65
2022/08/08 03:57:05;;;;;;;;;;;;;;;13.69;33.83;96175.41;5016451;28;19968;-65
2022/08/08 03:59:30;;;;;;;;;;;;;;;13.65;34.61;96182.13;4979051;28;19993;-65
2022/08/08 04:01:56;;;;;;;;;;;;;;;13.69;33.48;96180.75;4988841;28;19990;-61
2022/08/08 04:04:21;;;;;;;;;;;;;;;13.83;33.43;96183.59;4969221;28;20423;-65
2022/08/08 04:06:56;;;;;;;;;;;;;;;13.76;33.10;96178.16;4987448;28;19991;-65
2022/08/08 04:09:21;;;;;;;;;;;;;;;13.93;32.92;96186.03;4986027;28;20055;-65
2022/08/08 04:11:46;;;;;;;;;;;;;;;13.97;32.15;96190.00;4986071;28;20429;-65
2022/08/08 04:14:11;;;;;;;;;;;;;;;14.03;32.26;96183.91;4985929;28;20072;-65
2022/08/08 04:16:37;;;;;;;;;;;;;;;14.05;32.35;96181.03;4985353;28;19975;-65
2022/08/08 04:19:02;;;;;;;;;;;;;;;14.10;32.20;96181.31;4986082;28;20017;-65
2022/08/08 04:21:27;;;;;;;;;;;;;;;14.09;32.58;96193.03;4985551;28;20000;-64
2022/08/08 04:23:52;;;;;;;;;;;;;;;14.05;32.58;96189.06;4987653;28;19972;-65
2022/08/08 04:26:18;;;;;;;;;;;;;;;13.97;32.51;96190.00;4986455;28;19994;-65
2022/08/08 04:28:43;;;;;;;;;;;;;;;14.05;31.83;96187.22;4987390;28;20052;-65
2022/08/08 04:31:08;;;;;;;;;;;;;;;14.16;31.80;96183.25;4988353;28;20504;-65
2022/08/08 04:33:34;;;;;;;;;;;;;;;14.12;32.46;96189.16;4987120;28;20359;-65
2022/08/08 04:35:59;;;;;;;;;;;;;;;14.16;32.10;96190.44;4990956;28;19976;-65
2022/08/08 04:38:24;;;;;;;;;;;;;;;14.24;32.03;96194.88;4990521;28;20020;-65
2022/08/08 04:40:50;;;;;;;;;;;;;;;14.25;31.73;96202.72;4985980;28;20095;-65
2022/08/08 04:43:15;;;;;;;;;;;;;;;14.30;31.84;96197.63;4986117;28;20005;-65
2022/08/08 04:45:40;;;;;;;;;;;;;;;14.33;32.03;96189.22;4986721;28;20110;-65
2022/08/08 04:48:05;;;;;;;;;;;;;;;14.34;32.33;96184.66;4991267;28;19980;-65
2022/08/08 04:50:30;;;;;;;;;;;;;;;14.32;32.09;96197.44;4987842;28;20000;-65
2022/08/08 04:52:56;;;;;;;;;;;;;;;14.42;31.99;96195.28;4987915;28;20008;-65
2022/08/08 04:55:21;;;;;;;;;;;;;;;14.42;32.47;96206.00;4988236;28;20000;-66
2022/08/08 04:57:46;;;;;;;;;;;;;;;14.52;32.32;96204.88;4987305;28;19990;-66
2022/08/08 05:00:12;;;;;;;;;;;;;;;14.64;31.61;96207.88;4989319;28;19974;-65
2022/08/08 05:02:37;;;;;;;;;;;;;;;14.83;31.20;96209.16;4995855;28;19998;-65
2022/08/08 05:05:03;;;;;;;;;;;;;;;14.88;31.17;96212.06;4995924;28;19979;-67
2022/08/08 05:07:28;;;;;;;;;;;;;;;14.92;31.34;96218.72;4984496;28;20107;-67
2022/08/08 05:09:53;;;;;;;;;;;;;;;14.83;31.79;96211.84;4985395;28;19997;-67
2022/08/08 05:12:18;;;;;;;;;;;;;;;15.02;31.42;96210.34;4994419;28;20225;-67
2022/08/08 05:14:44;;;;;;;;;;;;;;;15.21;30.84;96213.41;4986570;28;20042;-67
2022/08/08 05:17:09;;;;;;;;;;;;;;;15.35;30.95;96217.88;4986664;28;20005;-67
2022/08/08 05:19:36;;;;;;;;;;;;;;;15.48;30.46;96217.16;4991645;28;19997;-67
2022/08/08 05:22:01;;;;;;;;;;;;;;;15.57;30.79;96219.72;4986023;28;20016;-67
2022/08/08 05:24:27;;;;;;;;;;;;;;;15.61;30.23;96212.94;4986965;28;19981;-68
2022/08/08 05:26:52;;;;;;;;;;;;;;;15.77;29.98;96213.66;4987791;28;20000;-67
2022/08/08 05:29:17;;;;;;;;;;;;;;;15.99;29.62;96217.09;4996554;28;20043;-67
2022/08/08 05:31:42;;;;;;;;;;;;;;;16.09;29.69;96217.56;4983507;28;20357;-67
2022/08/08 05:34:12;;;;;;;;;;;;;;;16.20;29.44;96224.22;4986750;28;20332;-67
2022/08/08 05:36:37;;;;;;;;;;;;;;;16.36;29.49;96224.94;4995282;28;19973;-67
2022/08/08 05:39:03;;;;;;;;;;;;;;;16.46;28.99;96224.56;4986076;28;20001;-67
2022/08/08 05:41:29;;;;;;;;;;;;;;;16.58;29.10;96219.41;4993808;28;20434;-67
2022/08/08 05:43:58;;;;;;;;;;;;;;;16.73;28.98;96224.66;4985541;28;19994;-67
2022/08/08 05:46:23;;;;;;;;;;;;;;;16.87;28.80;96226.31;4985326;28;19995;-68
2022/08/08 05:48:48;;;;;;;;;;;;;;;17.06;28.84;96226.56;4992475;28;20063;-67
2022/08/08 05:51:13;;;;;;;;;;;;;;;17.20;28.63;96227.44;4993206;28;19997;-67
2022/08/08 05:53:39;;;;;;;;;;;;;;;17.33;28.69;96225.81;4990551;28;20430;-67
2022/08/08 05:56:04;;;;;;;;;;;;;;;17.55;28.05;96218.34;4987012;28;19971;-67
2022/08/08 05:58:30;;;;;;;;;;;;;;;17.75;27.93;96228.28;4984174;28;20519;-67
2022/08/08 06:00:55;;;;;;;;;;;;;;;17.98;27.77;96225.13;5007906;28;20057;-67
2022/08/08 06:03:22;;;;;;;;;;;;;;;18.18;27.43;96232.34;4986719;28;20710;-67
2022/08/08 06:05:49;;;;;;;;;;;;;;;18.22;27.71;96243.53;4984822;28;20253;-67
2022/08/08 06:08:14;;;;;;;;;;;;;;;18.42;27.17;96232.66;4988832;28;19966;-67
2022/08/08 06:10:39;;;;;;;;;;;;;;;18.58;27.10;96244.03;4988062;28;19985;-67
2022/08/08 06:13:05;;;;;;;;;;;;;;;18.77;26.38;96239.59;4994013;28;20003;-67
2022/08/08 06:15:31;;;;;;;;;;;;;;;18.85;26.38;96242.06;4987611;28;19981;-66
2022/08/08 06:17:56;;;;;;;;;;;;;;;19.01;25.85;96246.13;4991430;28;19933;-67
2022/08/08 06:20:21;;;;;;;;;;;;;;;19.14;25.89;96247.88;4985797;28;19922;-66
2022/08/08 06:22:47;;;;;;;;;;;;;;;19.25;24.87;96245.53;4989018;28;20436;-67
2022/08/08 06:25:12;;;;;;;;;;;;;;;19.18;25.33;96253.69;4992800;28;19937;-67
2022/08/08 06:27:37;;;;;;;;;;;;;;;19.33;25.58;96254.22;4991145;28;19980;-67
2022/08/08 06:30:04;;;;;;;;;;;;;;;19.29;25.83;96262.97;4985687;28;19926;-67
2022/08/08 06:32:32;;;;;;;;;;;;;;;19.74;25.55;96261.19;4987442;28;19918;-67
2022/08/08 06:35:02;;;;;;;;;;;;;;;19.58;24.82;96272.31;4989060;28;19929;-61
2022/08/08 06:37:30;;;;;;;;;;;;;;;19.98;24.68;96270.31;4989283;28;19925;-61
2022/08/08 06:39:55;;;;;;;;;;;;;;;20.14;24.53;96263.53;4985237;28;19930;-66
2022/08/08 06:42:20;;;;;;;;;;;;;;;20.37;24.20;96272.84;4984147;28;20303;-66
2022/08/08 06:44:48;;;;;;;;;;;;;;;20.47;23.98;96272.31;4992119;28;19921;-67
2022/08/08 06:47:13;;;;;;;;;;;;;;;20.51;24.11;96265.41;4992966;28;20426;-66
2022/08/08 06:49:40;;;;;;;;;;;;;;;20.61;23.94;96271.09;4990688;28;19935;-67
2022/08/08 06:52:05;;;;;;;;;;;;;;;20.59;23.19;96273.22;4986500;28;19929;-66
2022/08/08 06:54:30;;;;;;;;;;;;;;;20.75;22.82;96268.25;4989900;28;19926;-66
2022/08/08 06:56:56;;;;;;;;;;;;;;;20.87;22.73;96271.84;4991420;28;19932;-67
2022/08/08 06:59:21;;;;;;;;;;;;;;;20.95;22.94;96278.00;4993050;28;20409;-66
2022/08/08 07:01:56;;;;;;;;;;;;;;;21.24;22.64;96280.91;4992747;28;19921;-67
2022/08/08 07:04:23;;;;;;;;;;;;;;;21.18;22.00;96281.84;4988411;28;20420;-67
2022/08/08 07:06:49;;;;;;;;;;;;;;;21.29;22.36;96282.97;4995661;28;20301;-66
2022/08/08 07:09:19;;;;;;;;;;;;;;;21.35;22.18;96290.19;4990042;28;19926;-66
2022/08/08 07:11:47;;;;;;;;;;;;;;;21.37;21.81;96280.75;4990670;28;20361;-66
2022/08/08 07:14:14;;;;;;;;;;;;;;;21.58;21.86;96283.97;4989522;28;19921;-66
2022/08/08 07:16:41;;;;;;;;;;;;;;;21.59;22.79;96288.31;4993051;28;19929;-67
2022/08/08 07:19:19;;;;;;;;;;;;;;;21.62;20.92;96285.16;4988307;28;19922;-66
2022/08/08 07:21:54;;;;;;;;;;;;;;;21.82;21.24;96286.69;4993764;28;19925;-67
2022/08/08 07:24:24;;;;;;;;;;;;;;;21.92;20.85;96296.19;4988717;28;20210;-67
2022/08/08 07:26:50;;;;;;;;;;;;;;;21.92;20.99;96298.91;4987884;28;20070;-67
2022/08/08 07:29:15;;;;;;;;;;;;;;;21.82;21.13;96297.53;4986698;28;20051;-66
2022/08/08 07:31:40;;;;;;;;;;;;;;;21.84;21.72;96303.56;4990978;28;20148;-66
2022/08/08 07:34:05;;;;;;;;;;;;;;;22.01;21.45;96302.88;4986162;28;19994;-67
2022/08/08 07:36:31;;;;;;;;;;;;;;;22.24;22.04;96299.38;4993990;28;19963;-66
2022/08/08 07:38:56;;;;;;;;;;;;;;;22.45;21.36;96302.50;4986619;28;19981;-66
2022/08/08 07:41:21;;;;;;;;;;;;;;;22.74;20.82;96301.78;5001718;28;20008;-66
2022/08/08 07:43:47;;;;;;;;;;;;;;;22.57;21.07;96297.09;5005404;28;20518;-67
2022/08/08 07:46:12;;;;;;;;;;;;;;;22.92;20.43;96306.22;4990217;28;19986;-67
2022/08/08 07:48:38;;;;;;;;;;;;;;;23.04;20.58;96306.16;4988017;28;19983;-66
2022/08/08 07:51:03;;;;;;;;;;;;;;;23.14;19.92;96306.38;4996666;28;20026;-67
2022/08/08 07:53:34;;;;;;;;;;;;;;;23.07;20.13;96302.94;4994299;28;20307;-67
2022/08/08 07:55:59;;;;;;;;;;;;;;;23.28;19.73;96312.34;4991994;28;19992;-67
2022/08/08 07:58:31;;;;;;;;;;;;;;;23.23;19.31;96314.13;4991622;28;20409;-66
2022/08/08 08:01:06;;;;;;;;;;;;;;;23.08;19.40;96307.31;4989893;28;20079;-66
2022/08/08 08:03:35;;;;;;;;;;;;;;;23.00;19.59;96316.69;4991898;28;20020;-66
2022/08/08 08:06:00;;;;;;;;;;;;;;;23.33;18.89;96319.75;4990769;28;19996;-67
2022/08/08 08:08:26;;;;;;;;;;;;;;;23.62;19.29;96310.75;4995403;28;20572;-67
2022/08/08 08:10:54;;;;;;;;;;;;;;;23.76;18.40;96316.72;4988230;28;19979;-66
2022/08/08 08:13:19;;;;;;;;;;;;;;;23.72;18.18;96318.25;4990101;28;19961;-67
2022/08/08 08:15:48;;;;;;;;;;;;;;;23.83;18.91;96320.09;4989917;28;20332;-66
2022/08/08 08:18:14;;;;;;;;;;;;;;;24.02;18.20;96322.53;4980373;28;19982;-67
2022/08/08 08:20:39;;;;;;;;;;;;;;;24.03;18.61;96322.31;4988829;28;19975;-67
2022/08/08 08:23:04;;;;;;;;;;;;;;;23.83;18.34;96322.81;4986340;28;19976;-66
2022/08/08 08:25:29;;;;;;;;;;;;;;;23.99;18.46;96323.88;4989847;28;20470;-66
2022/08/08 08:27:55;;;;;;;;;;;;;;;24.22;17.37;96315.75;4990185;28;19964;-67
2022/08/08 08:30:20;;;;;;;;;;;;;;;24.48;18.22;96318.88;4990260;28;20015;-67
2022/08/08 08:32:45;;;;;;;;;;;;;;;24.57;17.67;96325.53;4987791;28;19958;-67
2022/08/08 08:35:11;;;;;;;;;;;;;;;24.59;17.74;96326.13;4984721;28;19996;-67
2022/08/08 08:37:37;;;;;;;;;;;;;;;24.63;17.92;96326.41;4985162;28;20083;-67
2022/08/08 08:40:03;;;;;;;;;;;;;;;25.06;16.97;96324.81;4991768;28;20396;-67
2022/08/08 08:42:28;;;;;;;;;;;;;;;25.02;17.66;96326.38;4992512;28;19977;-66
2022/08/08 08:44:53;;;;;;;;;;;;;;;25.11;18.06;96326.75;4987856;28;19918;-67
2022/08/08 08:47:19;;;;;;;;;;;;;;;25.53;15.91;96333.47;4988164;28;20013;-66
2022/08/08 08:49:44;;;;;;;;;;;;;;;25.31;16.92;96333.50;4988360;28;20020;-67
2022/08/08 08:52:09;;;;;;;;;;;;;;;25.30;16.43;96320.97;4990325;28;19986;-66
2022/08/08 08:54:34;;;;;;;;;;;;;;;25.35;17.04;96324.56;4986528;28;20005;-66
2022/08/08 08:57:00;;;;;;;;;;;;;;;25.28;17.22;96328.56;4987129;28;20014;-67
2022/08/08 08:59:25;;;;;;;;;;;;;;;25.18;17.37;96338.28;4984305;28;19968;-67
2022/08/08 09:01:50;;;;;;;;;;;;;;;25.22;17.67;96333.97;4988759;28;20270;-66
2022/08/08 09:04:22;;;;;;;;;;;;;;;25.34;17.82;96335.72;4989096;28;19959;-66
2022/08/08 09:06:47;;;;;;;;;;;;;;;25.17;16.10;96331.19;4993199;28;20002;-67
2022/08/08 09:09:14;;;;;;;;;;;;;;;25.36;16.17;96330.84;4989092;28;20423;-66
2022/08/08 09:11:40;;;;;;;;;;;;;;;25.51;16.77;96341.09;4991372;28;19971;-67
2022/08/08 09:14:05;;;;;;;;;;;;;;;25.67;17.79;96336.63;4983605;28;19977;-66
2022/08/08 09:16:31;;;;;;;;;;;;;;;25.42;16.46;96334.44;4985915;28;20311;-66
2022/08/08 09:18:57;;;;;;;;;;;;;;;25.16;16.87;96337.72;4988294;28;20071;-66
2022/08/08 09:21:22;;;;;;;;;;;;;;;25.26;16.91;96336.19;4986800;28;20066;-66
2022/08/08 09:23:47;;;;;;;;;;;;;;;25.40;17.60;96337.44;4987662;28;20039;-67
2022/08/08 09:26:12;;;;;;;;;;;;;;;25.68;18.06;96334.69;4990436;28;20076;-66
2022/08/08 09:28:38;;;;;;;;;;;;;;;25.83;16.77;96343.00;4987029;28;19989;-66
2022/08/08 09:31:11;;;;;;;;;;;;;;;26.09;16.73;96336.97;4989582;28;19974;-66
2022/08/08 09:33:36;;;;;;;;;;;;;;;26.20;16.08;96338.69;4986388;28;20445;-66
2022/08/08 09:36:02;;;;;;;;;;;;;;;26.48;16.18;96339.41;4988030;28;19955;-66
2022/08/08 09:38:30;;;;;;;;;;;;;;;26.57;15.98;96331.56;4984394;28;19971;-67
2022/08/08 09:40:56;;;;;;;;;;;;;;;26.64;16.28;96342.25;4994950;28;19974;-67
2022/08/08 09:43:29;;;;;;;;;;;;;;;26.80;16.20;96331.41;4989805;28;20428;-66
2022/08/08 09:45:57;;;;;;;;;;;;;;;26.66;15.87;96333.78;4986955;28;19966;-66
2022/08/08 09:48:22;;;;;;;;;;;;;;;26.89;15.85;96329.81;4987412;28;19951;-67
2022/08/08 09:50:49;;;;;;;;;;;;;;;26.95;16.09;96336.13;4992580;28;20286;-66
2022/08/08 09:53:16;;;;;;;;;;;;;;;26.86;16.45;96330.34;4988382;28;20495;-66
2022/08/08 09:55:42;;;;;;;;;;;;;;;27.26;14.94;96326.13;4982956;28;19956;-66
2022/08/08 09:58:13;;;;;;;;;;;;;;;27.21;15.14;96325.28;4986986;28;19968;-66
2022/08/08 10:00:38;;;;;;;;;;;;;;;27.14;15.88;96328.28;4995357;28;19982;-67
2022/08/08 10:03:03;;;;;;;;;;;;;;;27.36;14.83;96327.25;4993379;28;20456;-66
2022/08/08 10:05:32;;;;;;;;;;;;;;;27.60;14.97;96330.25;4994339;28;20093;-66
2022/08/08 10:07:58;;;;;;;;;;;;;;;27.90;14.98;96331.41;4988860;28;19954;-66
2022/08/08 10:10:23;;;;;;;;;;;;;;;27.70;14.83;96331.41;4987190;28;20016;-66
2022/08/08 10:12:48;;;;;;;;;;;;;;;28.01;13.93;96334.94;4989577;28;19952;-66
2022/08/08 10:15:13;;;;;;;;;;;;;;;28.14;14.46;96327.31;4986682;28;19957;-66
2022/08/08 10:17:43;;;;;;;;;;;;;;;27.97;14.57;96328.38;4984962;28;19963;-66
2022/08/08 10:20:09;;;;;;;;;;;;;;;28.03;14.63;96318.25;4989131;28;19960;-67
2022/08/08 10:22:34;;;;;;;;;;;;;;;27.71;14.90;96324.84;4990850;28;19957;-66
2022/08/08 10:25:03;;;;;;;;;;;;;;;28.04;14.89;96319.91;4990597;28;20357;-66
2022/08/08 10:27:28;;;;;;;;;;;;;;;28.47;14.46;96322.31;4990418;28;20036;-67
2022/08/08 10:30:00;;;;;;;;;;;;;;;28.64;14.46;96323.91;4991681;28;20448;-66
2022/08/08 10:32:34;;;;;;;;;;;;;;;28.75;14.38;96319.28;4989895;28;19988;-66
2022/08/08 10:34:59;;;;;;;;;;;;;;;28.63;15.00;96316.81;4988612;28;19958;-66
2022/08/08 10:37:26;;;;;;;;;;;;;;;28.89;14.05;96314.00;4987905;28;19972;-66
2022/08/08 10:39:52;;;;;;;;;;;;;;;28.87;13.77;96319.75;4987420;28;19924;-67
2022/08/08 10:42:17;;;;;;;;;;;;;;;28.91;13.52;96320.84;4997068;28;20360;-67
2022/08/08 10:44:43;;;;;;;;;;;;;;;28.93;13.76;96315.06;4994369;28;19966;-67
2022/08/08 10:47:11;;;;;;;;;;;;;;;28.55;14.17;96310.00;4989614;28;20405;-66
2022/08/08 10:49:38;;;;;;;;;;;;;;;28.28;14.25;96320.19;4989946;28;20661;-67
2022/08/08 10:52:04;;;;;;;;;;;;;;;28.11;13.85;96316.91;4997005;28;19940;-67
2022/08/08 10:54:29;;;;;;;;;;;;;;;27.61;14.97;96315.53;4991687;28;20695;-66
2022/08/08 10:56:55;;;;;;;;;;;;;;;28.27;14.91;96317.72;4994201;28;19983;-66
2022/08/08 10:59:20;;;;;;;;;;;;;;;27.92;14.43;96313.91;4989214;28;19960;-67
2022/08/08 11:01:45;;;;;;;;;;;;;;;28.08;14.16;96312.81;4989343;28;19958;-66
2022/08/08 11:04:11;;;;;;;;;;;;;;;28.19;14.66;96310.06;4992386;28;20471;-67
2022/08/08 11:06:37;;;;;;;;;;;;;;;28.54;14.79;96308.34;4991412;28;19962;-67
2022/08/08 11:09:06;;;;;;;;;;;;;;;28.54;14.65;96303.69;4991394;28;19974;-66
2022/08/08 11:11:41;;;;;;;;;;;;;;;28.78;13.73;96305.81;4987928;28;19965;-66
2022/08/08 11:14:07;;;;;;;;;;;;;;;28.63;15.25;96300.38;4988128;28;20050;-66
2022/08/08 11:16:33;;;;;;;;;;;;;;;29.05;13.79;96301.84;4989508;28;19996;-67
2022/08/08 11:18:58;;;;;;;;;;;;;;;28.76;14.22;96297.03;4993754;28;20438;-67
2022/08/08 11:21:24;;;;;;;;;;;;;;;29.27;13.78;96295.16;4993871;28;20502;-66
2022/08/08 11:23:49;;;;;;;;;;;;;;;28.78;13.68;96302.25;4992374;28;20169;-67
2022/08/08 11:26:16;;;;;;;;;;;;;;;28.91;13.83;96298.09;5006300;28;19964;-66
2022/08/08 11:28:41;;;;;;;;;;;;;;;28.49;13.07;96294.66;4992677;28;20283;-66
2022/08/08 11:31:07;;;;;;;;;;;;;;;28.27;13.56;96293.91;4992171;28;19937;-67
2022/08/08 11:33:33;;;;;;;;;;;;;;;28.84;12.58;96290.19;4996486;28;19971;-67
2022/08/08 11:35:58;;;;;;;;;;;;;;;28.83;14.79;96287.72;4990885;28;20395;-67
2022/08/08 11:38:24;;;;;;;;;;;;;;;28.19;14.05;96293.66;4988480;28;19949;-67
2022/08/08 11:40:49;;;;;;;;;;;;;;;28.28;13.75;96287.31;4989754;28;19990;-67
2022/08/08 11:43:15;;;;;;;;;;;;;;;28.38;14.38;96291.97;4988723;28;19933;-67
2022/08/08 11:45:41;;;;;;;;;;;;;;;28.80;13.43;96289.09;4982430;28;19931;-67
2022/08/08 11:48:06;;;;;;;;;;;;;;;29.10;14.69;96275.53;4992946;28;19957;-67
2022/08/08 11:50:32;;;;;;;;;;;;;;;29.27;13.27;96278.72;4986866;28;19969;-67
2022/08/08 11:52:57;;;;;;;;;;;;;;;29.37;13.77;96279.78;4988304;28;19957;-66
2022/08/08 11:55:25;;;;;;;;;;;;;;;29.50;13.99;96273.63;4995681;28;20016;-67
2022/08/08 11:58:07;;;;;;;;;;;;;;;29.84;14.88;96279.44;4994381;28;19928;-66
2022/08/08 12:00:32;;;;;;;;;;;;;;;29.11;12.89;96271.66;4987666;28;20323;-67
2022/08/08 12:02:59;;;;;;;;;;;;;;;29.70;13.47;96266.38;4997270;28;19952;-67
2022/08/08 12:05:30;;;;;;;;;;;;;;;29.99;12.71;96273.81;4993412;28;19944;-67
2022/08/08 12:07:56;;;;;;;;;;;;;;;30.04;12.21;96265.50;4991934;28;20460;-66
2022/08/08 12:10:22;;;;;;;;;;;;;;;30.29;12.83;96271.88;4992546;28;19930;-67
2022/08/08 12:12:47;;;;;;;;;;;;;;;30.61;13.80;96269.56;4985474;28;19932;-66
2022/08/08 12:15:23;;;;;;;;;;;;;;;30.83;13.59;96265.50;4988633;28;19921;-66
2022/08/08 12:17:48;;;;;;;;;;;;;;;31.45;11.42;96261.06;4986959;28;19922;-67
2022/08/08 12:20:13;;;;;;;;;;;;;;;31.26;11.16;96261.09;4991372;28;20040;-67
2022/08/08 12:22:46;;;;;;;;;;;;;;;31.18;11.32;96270.81;4993786;28;19970;-66
2022/08/08 12:25:17;;;;;;;;;;;;;;;30.30;12.43;96265.28;4995165;28;19944;-67
2022/08/08 12:27:43;;;;;;;;;;;;;;;29.75;13.43;96258.09;5010257;28;19957;-67
2022/08/08 12:30:08;;;;;;;;;;;;;;;28.87;12.79;96259.50;5013443;28;20004;-67
2022/08/08 12:32:40;;;;;;;;;;;;;;;26.53;16.43;96251.28;4995105;28;19939;-67
2022/08/08 12:35:07;;;;;;;;;;;;;;;27.11;15.36;96257.78;5012293;28;20155;-67
2022/08/08 12:37:35;;;;;;;;;;;;;;;28.25;13.73;96249.56;5005839;28;20108;-66
2022/08/08 12:40:16;;;;;;;;;;;;;;;28.88;14.72;96252.06;5004873;28;20390;-67
2022/08/08 12:42:47;;;;;;;;;;;;;;;28.78;14.09;96259.25;5013696;28;20678;-66
2022/08/08 12:45:13;;;;;;;;;;;;;;;28.98;12.15;96251.19;5006660;28;19998;-66
2022/08/08 12:47:38;;;;;;;;;;;;;;;29.06;13.58;96253.38;5008465;28;19968;-66
2022/08/08 12:50:04;;;;;;;;;;;;;;;29.36;12.44;96257.00;5006535;28;19980;-67
2022/08/08 12:52:30;;;;;;;;;;;;;;;27.64;14.62;96259.50;5005516;28;19945;-67
2022/08/08 12:55:02;;;;;;;;;;;;;;;24.56;15.90;96250.41;4990473;28;20385;-67
2022/08/08 12:57:28;;;;;;;;;;;;;;;27.54;13.68;96243.88;5006261;28;20471;-67
2022/08/08 12:59:53;;;;;;;;;;;;;;;29.03;12.43;96243.75;5008542;28;20287;-67
2022/08/08 13:02:32;;;;;;;;;;;;;;;28.53;13.75;96247.31;5006590;28;19973;-66
2022/08/08 13:04:58;;;;;;;;;;;;;;;28.31;13.75;96238.63;5009219;28;20249;-66